Arrington Corner, Kentucky
Current Conditions -  °F | °C
As of 1:56 PM on Monday 24 Nov 2014 (Local Time) from KOWB Reporting Station
Broken Clouds Broken Clouds  
Wind Chill: 50°   Ceiling: 3800
Heat Index: 50°   Visibility: 10mi
Dew Point: 36°   Wind: 17mph
Humidity: 59%   Direction: 240°WSW
Pressure: 29.76"   Gusts: 28mph
Location:  37.8331°N, 86.7635°W
Report Text: KOWB 241956Z 24015G24KT 10SM BKN038 10/02 A2976 RMK AO2 T01000022 SLP075
Loading
Personal Weather Stations






























Interactive Weather Map New forecast layout! Learn more

10-Day Weather Forecast

Advertisements
Track Severe Weather on mobile